Oros, Brazil
Current Conditions -  °F | °C
As of 8:00 PM on Thursday 20 Nov 2014 (Local Time) from SBJU Reporting Station
Clear Clear  
Wind Chill: 86°   Ceiling: Unl
Heat Index: 93°   Visibility: 6mi
Dew Point: 73°   Wind: 3mph
Humidity: 66%   Direction: 220°SW
Pressure: 29.94"   Gusts: NA
Location:  6.24°S, 38.91°W
Report Text: SBJU 202300Z 22003KT CAVOK 30/23 Q1014
Loading
Personal Weather Stations






























Interactive Weather Map New forecast layout! Learn more

10-Day Weather Forecast

Advertisements
Track Severe Weather on mobile